Time;durP1;ratioP1;P1;durP2;ratioP2;P2;SDS_P1;SDS_P2;PMS_P1;PMS_P2;Temp;Humidity;BMP_temperature;BMP_pressure;BME280_temperature;BME280_humidity;BME280_pressure;Samples;Min_cycle;Max_cycle;Signal;HPM_P1;HPM_P2
2021/03/06 00:00:20;;;;;;;27.45;18.40;;;;;;;11.53;36.93;103456.09;5055227;28;20033;-77
2021/03/06 00:02:46;;;;;;;31.13;19.75;;;;;;;11.57;36.97;103462.75;5055186;28;20468;-76
2021/03/06 00:05:12;;;;;;;28.63;21.15;;;;;;;11.60;36.80;103461.38;5054196;28;20033;-77
2021/03/06 00:07:38;;;;;;;28.27;19.77;;;;;;;11.65;36.75;103462.28;5055219;28;20040;-77
2021/03/06 00:10:06;;;;;;;25.42;18.98;;;;;;;11.66;36.87;103458.47;5053758;28;20029;-77
2021/03/06 00:12:32;;;;;;;27.13;18.17;;;;;;;11.72;37.00;103462.13;5052389;28;20027;-78
2021/03/06 00:14:57;;;;;;;23.60;17.67;;;;;;;11.81;36.93;103457.88;5053335;28;20535;-77
2021/03/06 00:17:23;;;;;;;28.02;19.02;;;;;;;11.84;36.93;103462.00;5053479;28;20101;-77
2021/03/06 00:19:49;;;;;;;30.27;18.63;;;;;;;11.88;36.90;103463.97;5053337;28;20033;-77
2021/03/06 00:22:14;;;;;;;30.73;18.45;;;;;;;11.90;37.12;103464.53;5053098;28;20028;-77
2021/03/06 00:24:40;;;;;;;44.45;22.27;;;;;;;11.85;37.26;103469.13;5052587;28;20472;-77
2021/03/06 00:27:06;;;;;;;34.22;20.45;;;;;;;11.91;36.70;103465.38;5054811;28;20025;-77
2021/03/06 00:29:31;;;;;;;30.63;17.73;;;;;;;11.98;36.78;103468.75;5054809;28;20029;-77
2021/03/06 00:31:57;;;;;;;27.30;17.88;;;;;;;12.05;36.86;103477.59;5054843;28;20056;-77
2021/03/06 00:34:23;;;;;;;29.15;18.02;;;;;;;12.13;36.76;103479.06;5054721;28;20086;-77
2021/03/06 00:36:48;;;;;;;28.02;18.33;;;;;;;12.14;36.88;103477.97;5054758;28;20032;-77
2021/03/06 00:39:14;;;;;;;28.33;18.17;;;;;;;12.22;36.84;103483.00;5054636;28;20028;-77
2021/03/06 00:41:39;;;;;;;29.52;17.23;;;;;;;12.24;36.69;103475.34;5054455;28;20044;-75
2021/03/06 00:44:05;;;;;;;21.20;14.82;;;;;;;12.26;36.77;103469.63;5054488;28;20108;-75
2021/03/06 00:46:31;;;;;;;22.90;17.17;;;;;;;12.29;36.73;103461.69;5054529;28;20372;-76
2021/03/06 00:48:56;;;;;;;26.35;16.30;;;;;;;12.35;36.79;103470.81;5054413;28;20032;-76
2021/03/06 00:51:23;;;;;;;40.38;15.77;;;;;;;12.37;36.91;103466.69;5054479;28;20035;-76
2021/03/06 00:53:48;;;;;;;20.55;14.52;;;;;;;12.39;36.68;103463.69;5054267;28;20395;-75
2021/03/06 00:56:14;;;;;;;21.10;14.07;;;;;;;12.43;36.66;103471.16;5054336;28;20029;-76
2021/03/06 00:58:40;;;;;;;19.90;14.77;;;;;;;12.41;36.80;103464.28;5054192;28;20376;-76
2021/03/06 01:01:07;;;;;;;23.38;15.27;;;;;;;12.47;36.73;103466.00;5054229;28;20056;-76
2021/03/06 01:03:32;;;;;;;32.65;17.10;;;;;;;12.49;36.74;103458.34;5054128;28;20043;-75
2021/03/06 01:05:58;;;;;;;22.27;16.02;;;;;;;12.57;36.76;103457.03;5054163;28;20507;-77
2021/03/06 01:08:24;;;;;;;22.63;15.73;;;;;;;12.58;36.62;103453.19;5052893;28;20025;-76
2021/03/06 01:10:50;;;;;;;25.65;18.13;;;;;;;12.60;36.57;103454.56;5054328;28;20047;-76
2021/03/06 01:13:15;;;;;;;22.42;15.27;;;;;;;12.63;36.49;103450.50;5054054;28;20473;-76
2021/03/06 01:15:41;;;;;;;21.85;14.48;;;;;;;12.65;36.60;103451.06;5053891;28;20442;-76
2021/03/06 01:18:07;;;;;;;24.58;14.95;;;;;;;12.68;36.54;103461.50;5053902;28;20033;-76
2021/03/06 01:20:35;;;;;;;19.65;15.18;;;;;;;12.71;36.53;103452.78;5053861;28;20025;-76
2021/03/06 01:23:01;;;;;;;21.33;14.88;;;;;;;12.75;36.52;103449.22;5053360;28;20025;-76
2021/03/06 01:25:27;;;;;;;21.10;16.48;;;;;;;12.78;36.53;103451.47;5053849;28;20049;-76
2021/03/06 01:27:53;;;;;;;20.33;14.95;;;;;;;12.81;36.54;103452.03;5052442;28;20056;-77
2021/03/06 01:30:21;;;;;;;34.33;17.70;;;;;;;12.79;36.62;103455.03;5053749;28;20536;-77
2021/03/06 01:32:47;;;;;;;27.77;18.45;;;;;;;12.83;36.49;103458.88;5053658;28;20089;-76
2021/03/06 01:35:13;;;;;;;23.20;16.63;;;;;;;12.82;36.68;103450.91;5053521;28;20534;-76
2021/03/06 01:37:41;;;;;;;21.23;15.10;;;;;;;12.82;36.66;103456.41;5053526;28;20030;-77
2021/03/06 01:40:11;;;;;;;25.05;15.65;;;;;;;12.73;36.53;103458.81;5053329;28;20045;-77
2021/03/06 01:42:38;;;;;;;20.45;16.50;;;;;;;12.75;36.84;103441.00;5053295;28;20040;-77
2021/03/06 01:45:06;;;;;;;23.83;16.15;;;;;;;12.76;36.73;103452.78;5053388;28;20052;-76
2021/03/06 01:47:32;;;;;;;19.52;15.88;;;;;;;12.68;37.08;103451.34;5053309;28;20115;-77
2021/03/06 01:49:57;;;;;;;21.20;15.27;;;;;;;12.70;36.67;103451.13;5053356;28;20133;-77
2021/03/06 01:52:23;;;;;;;28.30;15.60;;;;;;;12.70;36.83;103449.19;5053314;28;20045;-77
2021/03/06 01:54:50;;;;;;;25.17;17.23;;;;;;;12.71;36.94;103450.03;5053207;28;20104;-76
2021/03/06 01:57:16;;;;;;;22.45;15.85;;;;;;;12.75;36.82;103442.91;5053163;28;20079;-76
2021/03/06 01:59:42;;;;;;;20.40;15.20;;;;;;;12.77;36.87;103441.59;5051854;28;20033;-76
2021/03/06 02:02:07;;;;;;;21.92;15.90;;;;;;;12.78;37.08;103437.75;5053068;28;20468;-77
2021/03/06 02:04:34;;;;;;;21.70;14.38;;;;;;;12.78;37.02;103434.19;5053041;28;20055;-77
2021/03/06 02:07:03;;;;;;;22.25;14.43;;;;;;;12.80;37.03;103421.00;5053009;28;20079;-76
2021/03/06 02:09:29;;;;;;;20.58;16.23;;;;;;;12.88;36.65;103430.66;5053027;28;20071;-76
2021/03/06 02:12:27;;;;;;;21.52;14.40;;;;;;;12.88;36.87;103425.19;5052916;28;20108;-76
2021/03/06 02:15:20;;;;;;;24.77;14.75;;;;;;;12.81;37.17;103422.66;5052817;28;20030;-77
2021/03/06 02:18:02;;;;;;;25.95;16.23;;;;;;;12.78;36.94;103413.06;5052830;28;20033;-77
2021/03/06 02:20:50;;;;;;;22.17;15.65;;;;;;;12.83;36.90;103417.72;5052796;28;20029;-77
2021/03/06 02:23:30;;;;;;;20.10;16.30;;;;;;;12.86;36.79;103408.16;5052806;28;20597;-76
2021/03/06 02:26:29;;;;;;;19.25;15.38;;;;;;;12.86;36.89;103405.41;5052757;28;20068;-77
2021/03/06 02:28:57;;;;;;;20.10;14.38;;;;;;;12.92;36.72;103398.84;5016941;28;20116;-76
2021/03/06 02:31:26;;;;;;;22.00;16.05;;;;;;;12.92;36.91;103409.81;5052752;28;20430;-76
2021/03/06 02:34:01;;;;;;;21.65;15.23;;;;;;;12.90;36.86;103406.53;5051766;28;20087;-77
2021/03/06 02:36:27;;;;;;;20.73;15.85;;;;;;;12.95;36.74;103392.84;5052667;28;20525;-76
2021/03/06 02:38:56;;;;;;;24.00;16.33;;;;;;;12.95;36.85;103396.41;5052365;28;20029;-76
2021/03/06 02:41:26;;;;;;;22.63;15.97;;;;;;;13.00;36.85;103396.47;5052427;28;20558;-76
2021/03/06 02:43:53;;;;;;;22.42;15.40;;;;;;;12.98;36.86;103395.88;5052414;28;20025;-77
2021/03/06 02:46:23;;;;;;;25.38;14.77;;;;;;;12.99;36.61;103400.28;5052531;28;20425;-76
2021/03/06 02:48:49;;;;;;;21.05;14.45;;;;;;;13.01;37.01;103394.53;5050777;28;20021;-76
2021/03/06 02:51:15;;;;;;;20.58;14.90;;;;;;;13.03;36.83;103384.94;5051470;28;20398;-77
2021/03/06 02:53:41;;;;;;;22.90;13.93;;;;;;;13.00;36.86;103380.00;5051165;28;20029;-77
2021/03/06 02:56:07;;;;;;;20.90;14.40;;;;;;;12.99;37.01;103383.81;5051033;28;20028;-76
2021/03/06 02:59:03;;;;;;;21.90;16.35;;;;;;;12.88;37.01;103384.03;5051935;28;20489;-77
2021/03/06 03:01:53;;;;;;;21.98;15.68;;;;;;;12.92;37.02;103380.50;5052372;28;20035;-76
2021/03/06 03:04:46;;;;;;;21.85;14.77;;;;;;;12.97;36.84;103379.69;5052364;28;20032;-76
2021/03/06 03:07:30;;;;;;;22.58;15.60;;;;;;;12.97;37.02;103377.75;5052289;28;20061;-77
2021/03/06 03:10:02;;;;;;;20.58;14.93;;;;;;;13.00;36.83;103368.19;5052258;28;20029;-76
2021/03/06 03:12:35;;;;;;;21.63;15.20;;;;;;;12.98;37.09;103370.34;5052240;28;20045;-76
2021/03/06 03:15:10;;;;;;;19.05;14.65;;;;;;;13.02;37.05;103366.00;5052257;28;20029;-76
2021/03/06 03:17:41;;;;;;;20.83;13.60;;;;;;;13.03;36.96;103373.13;5052055;28;20092;-76
2021/03/06 03:20:41;;;;;;;20.95;15.38;;;;;;;12.74;37.91;103368.00;5052274;28;20044;-76
2021/03/06 03:23:10;;;;;;;20.95;14.70;;;;;;;12.89;37.40;103363.72;5052139;28;20052;-76
2021/03/06 03:25:38;;;;;;;22.38;14.02;;;;;;;12.90;37.49;103365.38;5050856;28;20033;-76
2021/03/06 03:28:05;;;;;;;32.15;15.30;;;;;;;12.77;37.66;103370.25;5052035;28;20577;-76
2021/03/06 03:30:33;;;;;;;25.15;15.95;;;;;;;12.92;37.37;103361.28;5050719;28;20045;-76
2021/03/06 03:33:01;;;;;;;24.90;16.48;;;;;;;12.98;37.18;103364.88;5052009;28;20025;-76
2021/03/06 03:35:28;;;;;;;23.73;13.73;;;;;;;13.01;37.31;103358.88;5051933;28;20032;-77
2021/03/06 03:37:55;;;;;;;26.85;16.08;;;;;;;13.05;37.40;103358.03;5052149;28;20029;-77
2021/03/06 03:40:25;;;;;;;23.80;15.55;;;;;;;13.08;37.50;103356.72;5051419;28;20045;-76
2021/03/06 03:42:51;;;;;;;20.13;14.73;;;;;;;13.21;37.21;103352.66;5051934;28;20128;-76
2021/03/06 03:45:19;;;;;;;17.55;13.10;;;;;;;13.25;37.23;103349.13;5051360;28;20039;-77
2021/03/06 03:47:45;;;;;;;17.30;13.25;;;;;;;13.33;37.08;103353.28;5055650;28;20090;-77
2021/03/06 03:50:13;;;;;;;18.50;13.43;;;;;;;13.34;37.13;103346.69;5055575;28;20044;-77
2021/03/06 03:52:41;;;;;;;37.30;14.02;;;;;;;13.32;37.20;103348.88;5055523;28;20027;-77
2021/03/06 03:55:08;;;;;;;26.52;16.65;;;;;;;13.31;37.21;103349.97;5055486;28;20021;-76
2021/03/06 03:57:35;;;;;;;20.90;14.82;;;;;;;13.35;37.09;103350.25;5055349;28;20484;-76
2021/03/06 04:00:03;;;;;;;20.13;14.20;;;;;;;13.38;37.18;103345.06;5055379;28;20588;-77
2021/03/06 04:02:29;;;;;;;21.73;13.93;;;;;;;13.38;36.99;103339.59;5055386;28;20052;-77
2021/03/06 04:04:55;;;;;;;24.27;13.48;;;;;;;13.41;37.11;103341.78;5055251;28;20518;-77
2021/03/06 04:07:21;;;;;;;20.90;14.70;;;;;;;13.41;37.26;103340.97;5055194;28;20025;-77
2021/03/06 04:09:47;;;;;;;18.25;14.50;;;;;;;13.42;37.21;103337.09;5055243;28;20104;-77
2021/03/06 04:12:13;;;;;;;23.27;15.45;;;;;;;13.43;37.26;103345.06;5055232;28;20021;-76
2021/03/06 04:14:38;;;;;;;19.30;13.65;;;;;;;13.41;37.30;103354.69;5055140;28;20044;-76
2021/03/06 04:17:04;;;;;;;21.80;14.63;;;;;;;13.43;37.29;103342.31;5053628;28;20036;-76
2021/03/06 04:19:30;;;;;;;17.35;13.25;;;;;;;13.43;37.29;103345.06;5055130;28;20097;-76
2021/03/06 04:21:55;;;;;;;18.08;13.40;;;;;;;13.44;37.09;103356.88;5054766;28;20021;-77
2021/03/06 04:24:22;;;;;;;18.80;13.13;;;;;;;13.44;37.01;103354.13;5054976;28;20032;-77
2021/03/06 04:26:49;;;;;;;19.80;13.40;;;;;;;13.42;37.19;103348.09;5054950;28;20032;-76
2021/03/06 04:29:20;;;;;;;18.42;12.88;;;;;;;13.39;37.06;103349.47;5054872;28;20025;-77
2021/03/06 04:31:46;;;;;;;21.00;13.45;;;;;;;13.41;37.13;103349.19;5054968;28;20032;-76
2021/03/06 04:34:12;;;;;;;21.42;13.63;;;;;;;13.44;37.06;103348.66;5054745;28;20130;-76
2021/03/06 04:36:38;;;;;;;16.73;13.18;;;;;;;13.41;37.12;103350.03;5054762;28;20056;-77
2021/03/06 04:39:05;;;;;;;21.83;13.57;;;;;;;13.41;37.18;103351.94;5054559;28;20045;-76
2021/03/06 04:41:31;;;;;;;19.10;14.07;;;;;;;13.44;37.31;103354.97;5054529;28;20169;-76
2021/03/06 04:43:56;;;;;;;21.70;14.00;;;;;;;13.51;37.17;103352.78;5054567;28;20043;-77
2021/03/06 04:46:22;;;;;;;17.60;13.57;;;;;;;13.44;37.21;103352.22;5054528;28;20033;-76
2021/03/06 04:48:49;;;;;;;18.83;14.18;;;;;;;13.48;37.06;103349.78;5054170;28;20029;-76
2021/03/06 04:51:15;;;;;;;21.05;14.13;;;;;;;13.49;37.19;103356.91;5054347;28;20471;-76
2021/03/06 04:53:40;;;;;;;18.08;13.07;;;;;;;13.50;37.10;103355.81;5054424;28;20036;-77
2021/03/06 04:56:06;;;;;;;85.30;17.90;;;;;;;13.48;37.31;103360.75;5054274;28;20051;-76
2021/03/06 04:58:32;;;;;;;20.15;14.43;;;;;;;13.49;37.13;103352.25;5053511;28;20436;-76
2021/03/06 05:00:57;;;;;;;22.48;13.93;;;;;;;13.49;37.28;103352.25;5054255;28;20108;-77
2021/03/06 05:03:23;;;;;;;19.75;13.93;;;;;;;13.51;37.03;103354.72;5053009;28;20021;-77
2021/03/06 05:05:49;;;;;;;22.42;14.15;;;;;;;13.45;37.34;103361.28;5054149;28;20112;-76
2021/03/06 05:08:15;;;;;;;23.00;14.50;;;;;;;13.49;37.43;103355.00;5054183;28;20463;-76
2021/03/06 05:10:40;;;;;;;19.38;14.85;;;;;;;13.51;37.19;103357.47;5054010;28;20025;-77
2021/03/06 05:13:06;;;;;;;22.27;13.95;;;;;;;13.51;37.27;103354.72;5054033;28;20104;-76
2021/03/06 05:15:31;;;;;;;20.15;14.30;;;;;;;13.50;37.35;103350.31;5054038;28;20049;-76
2021/03/06 05:17:58;;;;;;;19.55;14.07;;;;;;;13.47;37.38;103356.38;5053769;28;20032;-76
2021/03/06 05:20:24;;;;;;;19.55;14.45;;;;;;;13.47;37.29;103362.69;5053938;28;20036;-76
2021/03/06 05:22:49;;;;;;;18.83;14.63;;;;;;;13.47;37.28;103354.44;5053845;28;20021;-77
2021/03/06 05:25:15;;;;;;;19.70;14.07;;;;;;;13.51;37.18;103365.69;5052551;28;20032;-76
2021/03/06 05:27:41;;;;;;;20.48;14.00;;;;;;;13.54;37.32;103363.25;5053806;28;20479;-76
2021/03/06 05:30:08;;;;;;;18.20;14.48;;;;;;;13.54;37.29;103365.19;5053720;28;20075;-76
2021/03/06 05:32:33;;;;;;;21.88;13.82;;;;;;;13.49;37.34;103357.72;5053664;28;20028;-76
2021/03/06 05:35:00;;;;;;;18.63;14.40;;;;;;;13.48;37.31;103366.25;5053565;28;20021;-77
2021/03/06 05:37:25;;;;;;;22.15;14.93;;;;;;;13.46;37.41;103362.97;5053461;28;20114;-77
2021/03/06 05:39:51;;;;;;;21.75;15.20;;;;;;;13.52;37.17;103365.44;5053274;28;20064;-76
2021/03/06 05:42:17;;;;;;;22.77;15.48;;;;;;;13.37;37.54;103364.53;5053425;28;20028;-76
2021/03/06 05:44:43;;;;;;;18.98;15.30;;;;;;;13.37;37.70;103365.38;5053346;28;20032;-76
2021/03/06 05:47:11;;;;;;;17.00;14.25;;;;;;;13.38;37.56;103355.22;5053386;28;20017;-77
2021/03/06 05:49:38;;;;;;;22.13;15.02;;;;;;;13.25;37.83;103367.53;5052088;28;20174;-76
2021/03/06 05:52:06;;;;;;;20.27;15.40;;;;;;;13.29;37.62;103366.69;5053307;28;20029;-76
2021/03/06 05:54:35;;;;;;;23.08;15.27;;;;;;;13.18;37.78;103373.22;5053255;28;20029;-76
2021/03/06 05:57:02;;;;;;;20.57;15.20;;;;;;;13.26;37.83;103367.25;5053216;28;20100;-77
2021/03/06 05:59:28;;;;;;;19.90;14.63;;;;;;;13.28;37.81;103370.53;5053153;28;20029;-77
2021/03/06 06:01:55;;;;;;;19.10;14.80;;;;;;;13.26;37.80;103359.00;5053142;28;20100;-77
2021/03/06 06:04:25;;;;;;;22.58;14.95;;;;;;;13.22;37.77;103362.53;5053071;28;20086;-76
2021/03/06 06:06:52;;;;;;;19.38;15.23;;;;;;;13.30;37.75;103359.31;5053125;28;20070;-76
2021/03/06 06:09:17;;;;;;;18.35;15.30;;;;;;;13.23;38.06;103365.06;5052948;28;20032;-77
2021/03/06 06:11:43;;;;;;;19.40;15.75;;;;;;;13.29;37.75;103372.19;5052920;28;20547;-77
2021/03/06 06:14:09;;;;;;;18.85;13.90;;;;;;;13.28;37.83;103365.06;5052916;28;20029;-76
2021/03/06 06:16:35;;;;;;;23.25;14.98;;;;;;;13.30;37.84;103364.81;5052865;28;20049;-76
2021/03/06 06:19:02;;;;;;;19.90;15.50;;;;;;;13.23;38.21;103367.81;5052744;28;20045;-76
2021/03/06 06:21:54;;;;;;;22.05;15.80;;;;;;;13.29;38.13;103369.44;5052786;28;20025;-77
2021/03/06 06:24:24;;;;;;;19.10;14.63;;;;;;;13.35;37.81;103369.47;5052507;28;20044;-76
2021/03/06 06:26:59;;;;;;;22.08;15.45;;;;;;;13.27;38.15;103374.38;5052721;28;20025;-76
2021/03/06 06:29:45;;;;;;;20.67;15.65;;;;;;;13.35;37.88;103370.31;5052942;28;20037;-76
2021/03/06 06:32:15;;;;;;;22.10;15.98;;;;;;;13.21;38.14;103369.97;5052693;28;20033;-76
2021/03/06 06:34:55;;;;;;;20.20;15.02;;;;;;;13.31;38.01;103372.78;5052665;28;20032;-76
2021/03/06 06:37:20;;;;;;;19.70;14.75;;;;;;;13.31;38.07;103375.53;5051251;28;20112;-77
2021/03/06 06:39:46;;;;;;;22.30;16.33;;;;;;;13.32;38.07;103379.09;5052358;28;20438;-76
2021/03/06 06:42:11;;;;;;;22.98;15.57;;;;;;;13.30;38.02;103375.78;5051988;28;20039;-77
2021/03/06 06:44:37;;;;;;;25.48;16.13;;;;;;;13.40;37.91;103369.50;5051635;28;20469;-77
2021/03/06 06:47:14;;;;;;;22.42;16.15;;;;;;;13.37;37.94;103370.84;5052346;28;20017;-76
2021/03/06 06:49:47;;;;;;;18.80;14.90;;;;;;;13.39;37.68;103373.34;5052389;28;20040;-77
2021/03/06 06:52:14;;;;;;;20.05;16.13;;;;;;;13.37;38.07;103370.03;5052364;28;20025;-77
2021/03/06 06:54:40;;;;;;;22.10;15.30;;;;;;;13.40;38.24;103369.50;5052474;28;20017;-77
2021/03/06 06:57:10;;;;;;;21.35;15.43;;;;;;;13.46;37.63;103371.19;5052350;28;20031;-77
2021/03/06 06:59:38;;;;;;;25.85;16.42;;;;;;;13.33;38.01;103367.00;5052209;28;20087;-77
2021/03/06 07:02:08;;;;;;;18.55;14.77;;;;;;;13.33;37.87;103376.06;5052300;28;20383;-77
2021/03/06 07:04:49;;;;;;;29.30;17.25;;;;;;;13.28;38.01;103373.28;5052245;28;20043;-77
2021/03/06 07:07:16;;;;;;;21.05;15.40;;;;;;;13.29;38.02;103374.94;5052257;28;20082;-76
2021/03/06 07:09:55;;;;;;;22.77;17.63;;;;;;;13.30;38.01;103373.06;5052092;28;20111;-76
2021/03/06 07:12:21;;;;;;;20.75;16.30;;;;;;;13.28;37.90;103370.53;5051574;28;20048;-78
2021/03/06 07:14:47;;;;;;;19.85;15.52;;;;;;;13.22;38.00;103373.53;5051767;28;20021;-78
2021/03/06 07:17:12;;;;;;;26.58;16.13;;;;;;;13.16;38.11;103375.41;5051524;28;20079;-79
2021/03/06 07:19:42;;;;;;;19.48;16.33;;;;;;;13.17;38.03;103373.50;5051730;28;20112;-77
2021/03/06 07:22:08;;;;;;;;;;;;;;;13.18;37.96;103375.13;5054996;28;20108;-78
2021/03/06 07:24:34;;;;;;;17.80;12.02;;;;;;;13.35;37.73;103378.53;5055296;28;20341;-79
2021/03/06 07:27:00;;;;;;;15.98;12.93;;;;;;;13.35;37.65;103372.22;5055121;28;20033;-79
2021/03/06 07:29:26;;;;;;;22.33;14.27;;;;;;;13.22;37.94;103382.59;5054979;28;20506;-78
2021/03/06 07:31:57;;;;;;;16.85;13.23;;;;;;;13.23;37.85;103376.03;5054917;28;20167;-78
2021/03/06 07:34:27;;;;;;;20.02;14.15;;;;;;;13.36;37.82;103374.69;5048532;28;20037;-75
2021/03/06 07:37:03;;;;;;;25.80;14.10;;;;;;;13.33;37.83;103384.31;5033927;28;20392;-77
2021/03/06 07:39:37;;;;;;;15.98;11.57;;;;;;;13.47;37.64;103383.84;5034911;28;20598;-77
2021/03/06 07:42:06;;;;;;;16.75;11.68;;;;;;;13.54;37.58;103385.22;5037757;28;20756;-78
2021/03/06 07:44:32;;;;;;;18.65;12.82;;;;;;;13.56;37.39;103377.53;5052084;28;20025;-77
2021/03/06 07:46:58;;;;;;;18.85;11.57;;;;;;;13.56;37.54;103385.78;5054944;28;20039;-77
2021/03/06 07:49:31;;;;;;;12.95;10.20;;;;;;;13.54;37.54;103387.97;5054926;28;20025;-76
2021/03/06 07:51:59;;;;;;;17.67;9.38;;;;;;;13.64;37.32;103376.19;5054836;28;20025;-78
2021/03/06 07:54:25;;;;;;;19.17;9.80;;;;;;;13.66;37.20;103390.47;5054778;28;20031;-78
2021/03/06 07:56:51;;;;;;;15.07;9.18;;;;;;;13.77;36.89;103386.69;5054750;28;20673;-78
2021/03/06 07:59:17;;;;;;;18.30;8.27;;;;;;;13.81;36.98;103393.28;5054620;28;20029;-79
2021/03/06 08:01:43;;;;;;;11.48;8.57;;;;;;;13.88;36.85;103393.03;5054726;28;20087;-79
2021/03/06 08:04:35;;;;;;;17.23;9.18;;;;;;;13.96;36.65;103386.16;5054311;28;20045;-78
2021/03/06 08:07:11;;;;;;;32.33;10.90;;;;;;;13.92;36.78;103387.81;5054642;28;20032;-79
2021/03/06 08:09:58;;;;;;;19.33;9.20;;;;;;;13.96;36.59;103383.41;5054122;28;20029;-79
2021/03/06 08:12:33;;;;;;;27.27;8.80;;;;;;;14.00;36.68;103395.53;5050739;28;20047;-79
2021/03/06 08:14:58;;;;;;;47.88;11.95;;;;;;;14.10;36.55;103393.63;5047089;28;20439;-78
2021/03/06 08:17:36;;;;;;;14.45;7.90;;;;;;;14.02;36.02;103391.41;5042694;28;20116;-78
2021/03/06 08:20:06;;;;;;;29.73;9.57;;;;;;;14.15;36.42;103395.56;5050789;28;20024;-78
2021/03/06 08:22:31;;;;;;;;;;;;;;;14.21;36.04;103391.72;5053450;28;20052;-77
2021/03/06 08:25:15;;;;;;;15.30;6.38;;;;;;;14.26;35.95;103391.72;5043062;28;19966;-79
2021/03/06 08:27:41;;;;;;;16.38;7.55;;;;;;;14.37;35.73;103387.88;5050691;28;20029;-78
2021/03/06 08:30:26;;;;;;;19.52;9.05;;;;;;;14.22;34.98;103389.81;5052773;28;20020;-77
2021/03/06 08:33:15;;;;;;;29.90;8.77;;;;;;;14.37;35.03;103387.06;5050760;28;20104;-77
2021/03/06 08:35:41;;;;;;;53.63;12.73;;;;;;;14.47;35.44;103389.84;5034519;28;20044;-77
2021/03/06 08:38:33;;;;;;;31.48;8.63;;;;;;;14.44;35.24;103393.13;5033881;28;20388;-77
2021/03/06 08:40:59;;;;;;;16.63;10.02;;;;;;;14.56;35.31;103390.09;5046889;28;20044;-77
2021/03/06 08:43:25;;;;;;;40.83;21.35;;;;;;;14.68;35.10;103391.47;5051217;28;20047;-75
2021/03/06 08:45:51;;;;;;;38.55;13.13;;;;;;;14.71;34.75;103390.09;5052712;28;20460;-79
2021/03/06 08:48:21;;;;;;;32.92;8.40;;;;;;;14.68;34.49;103391.47;5053179;28;20100;-77
2021/03/06 08:50:47;;;;;;;20.58;8.75;;;;;;;14.87;34.31;103391.72;5052587;28;20360;-77
2021/03/06 08:53:16;;;;;;;34.83;8.75;;;;;;;14.94;34.44;103388.69;5052245;28;20036;-78
2021/03/06 08:55:45;;;;;;;33.33;9.70;;;;;;;15.12;34.45;103385.34;5053574;28;20060;-78
2021/03/06 08:58:13;;;;;;;30.52;10.65;;;;;;;15.14;34.09;103382.31;5051524;28;20037;-77
2021/03/06 09:00:42;;;;;;;57.88;12.38;;;;;;;15.28;33.83;103397.16;5051522;28;20029;-77
2021/03/06 09:03:19;;;;;;;114.73;23.43;;;;;;;15.24;32.42;103387.78;5053459;28;20474;-78
2021/03/06 09:05:49;;;;;;;54.50;20.55;;;;;;;15.42;32.73;103389.94;5053354;28;20083;-78
2021/03/06 09:08:21;;;;;;;41.92;9.90;;;;;;;15.50;32.69;103386.59;5053489;28;20021;-78
2021/03/06 09:10:49;;;;;;;53.70;16.98;;;;;;;15.51;32.52;103385.47;5053460;28;20040;-81
2021/03/06 09:13:20;;;;;;;42.83;13.48;;;;;;;15.39;32.18;103381.41;5052723;28;20394;-80
2021/03/06 09:15:47;;;;;;;124.88;25.50;;;;;;;15.50;32.26;103383.00;5053368;28;20029;-78
2021/03/06 09:18:17;;;;;;;44.10;12.90;;;;;;;15.63;32.00;103382.41;5051741;28;20545;-79
2021/03/06 09:20:45;;;;;;;;;;;;;;;15.58;31.74;103387.94;5053790;28;20029;-80
2021/03/06 09:23:21;;;;;;;40.15;10.57;;;;;;;15.72;31.76;103380.72;5051790;28;20416;-87
2021/03/06 09:25:46;;;;;;;33.78;9.20;;;;;;;15.79;31.39;103377.63;5053177;28;20074;-78
2021/03/06 09:28:12;;;;;;;22.38;5.80;;;;;;;15.90;31.02;103381.19;5051065;28;20021;-80
2021/03/06 09:30:40;;;;;;;10.88;4.72;;;;;;;15.86;30.69;103378.16;5052636;28;20032;-80
2021/03/06 09:33:30;;;;;;;13.23;4.50;;;;;;;15.91;30.39;103375.38;5051688;28;20031;-78
2021/03/06 09:36:01;;;;;;;;;;;;;;;15.86;30.33;103378.16;5043495;28;20118;-85
2021/03/06 09:38:26;;;;;;;91.20;15.70;;;;;;;15.99;30.39;103383.03;5049809;28;20385;-77
2021/03/06 09:40:53;;;;;;;31.23;9.52;;;;;;;16.15;30.22;103380.16;5053239;28;20053;-77
2021/03/06 09:43:27;;;;;;;8.88;4.85;;;;;;;16.13;29.88;103379.66;5052602;28;20100;-86
2021/03/06 09:45:54;;;;;;;28.08;7.55;;;;;;;16.28;29.93;103379.53;5053009;28;20035;-83
2021/03/06 09:48:20;;;;;;;27.70;8.13;;;;;;;16.22;29.72;103381.50;5051247;28;20032;-88
2021/03/06 09:50:46;;;;;;;27.13;7.78;;;;;;;16.41;29.68;103378.88;5052955;28;20024;-89
2021/03/06 09:53:30;;;;;;;18.90;7.00;;;;;;;16.52;29.72;103383.19;5051735;28;20378;-80
2021/03/06 09:56:13;;;;;;;18.23;7.28;;;;;;;16.36;29.36;103381.66;5052391;28;20055;-80
2021/03/06 09:58:40;;;;;;;13.13;5.03;;;;;;;16.73;29.35;103383.03;5041332;28;20036;-83
2021/03/06 10:01:20;;;;;;;57.28;10.07;;;;;;;16.84;28.97;103376.28;5043226;28;20144;-75
2021/03/06 10:03:49;;;;;;;12.35;4.75;;;;;;;16.87;29.08;103376.53;5050456;28;20112;-79
2021/03/06 10:06:18;;;;;;;8.27;4.50;;;;;;;16.94;29.11;103370.69;5050562;28;20032;-77
2021/03/06 10:08:53;;;;;;;26.10;6.60;;;;;;;17.08;28.92;103374.41;5052127;28;20504;-80
2021/03/06 10:11:26;;;;;;;30.95;8.48;;;;;;;17.24;28.48;103376.97;5051225;28;20036;-79
2021/03/06 10:13:52;;;;;;;8.30;3.95;;;;;;;17.33;28.06;103375.19;5051819;28;20670;-79
2021/03/06 10:16:19;;;;;;;29.23;8.55;;;;;;;17.37;28.17;103373.47;5052086;28;20071;-78
2021/03/06 10:18:45;;;;;;;10.00;4.53;;;;;;;17.54;28.01;103367.47;5050405;28;20107;-80
2021/03/06 10:21:14;;;;;;;18.25;6.15;;;;;;;17.41;28.46;103377.31;5051076;28;20082;-80
2021/03/06 10:23:41;;;;;;;25.40;7.60;;;;;;;17.52;28.06;103369.69;5050302;28;20029;-80
2021/03/06 10:26:26;;;;;;;9.05;4.63;;;;;;;17.53;27.51;103372.16;5051874;28;20025;-78
2021/03/06 10:28:57;;;;;;;34.17;8.38;;;;;;;17.61;27.61;103371.53;5049835;28;20063;-80
2021/03/06 10:31:35;;;;;;;14.43;5.25;;;;;;;17.60;27.62;103380.09;5051275;28;20025;-81
2021/03/06 10:34:35;;;;;;;20.80;7.75;;;;;;;17.41;27.14;103369.03;5050935;28;20082;-86
2021/03/06 10:37:15;;;;;;;41.17;11.07;;;;;;;17.41;27.89;103363.50;5047823;28;20059;-83
2021/03/06 10:40:04;;;;;;;33.53;13.00;;;;;;;17.46;27.48;103366.19;5050280;28;20043;-82
2021/03/06 10:43:02;;;;;;;45.00;17.35;;;;;;;17.63;27.66;103358.22;5050286;28;20086;-80
2021/03/06 10:45:29;;;;;;;18.15;8.32;;;;;;;17.78;27.84;103359.97;5037430;28;20086;-82
2021/03/06 10:47:57;;;;;;;18.73;7.32;;;;;;;17.80;27.94;103371.56;5050501;28;20545;-74
2021/03/06 10:50:27;;;;;;;24.83;17.25;;;;;;;17.85;27.61;103356.84;5031761;28;20025;-78
2021/03/06 10:53:09;;;;;;;33.87;8.17;;;;;;;17.72;27.65;103362.00;5045120;28;20027;-78
2021/03/06 10:55:35;;;;;;;9.55;5.88;;;;;;;17.73;27.79;103360.88;5051170;28;20269;-76
2021/03/06 10:58:01;;;;;;;20.75;7.93;;;;;;;17.68;27.56;103360.06;5045969;28;20028;-79
2021/03/06 11:00:26;;;;;;;24.77;10.13;;;;;;;17.59;27.42;103357.16;5050080;28;20021;-80
2021/03/06 11:03:00;;;;;;;20.35;9.93;;;;;;;17.71;27.13;103357.59;5051184;28;20045;-78
2021/03/06 11:05:30;;;;;;;21.85;8.68;;;;;;;17.75;27.13;103363.31;5041249;28;20057;-77
2021/03/06 11:08:10;;;;;;;19.30;7.03;;;;;;;17.78;27.02;103357.22;5048056;28;20403;-79
2021/03/06 11:10:43;;;;;;;13.50;6.38;;;;;;;17.91;27.12;103355.63;5051352;28;20029;-81
2021/03/06 11:13:11;;;;;;;17.83;6.45;;;;;;;17.98;27.10;103353.31;5049917;28;20070;-79
2021/03/06 11:15:49;;;;;;;14.50;5.72;;;;;;;18.05;26.93;103350.16;5050649;28;20096;-79
2021/03/06 11:18:15;;;;;;;10.90;5.88;;;;;;;18.17;26.99;103345.81;5050613;28;20029;-80
2021/03/06 11:20:41;;;;;;;29.45;8.25;;;;;;;17.88;27.18;103347.94;5050017;28;20568;-79
2021/03/06 11:23:07;;;;;;;10.88;5.63;;;;;;;17.89;26.85;103346.81;5050819;28;20029;-79